Eureka Center, Wisconsin
Current Conditions -  °F | °C
As of 12:15 AM on Thursday 29 Jan 2015 (Local Time) from KOEO Reporting Station
Haze Haze  
Wind Chill: 24°   Ceiling: 300
Heat Index: 30°   Visibility: 1.5mi
Dew Point: 30°   Wind: 6mph
Humidity: 100%   Direction: 320°NW
Pressure: 29.89"   Gusts: NA
Location:  45.4182°N, 92.6295°W
Report Text: KOEO 290615Z AUTO 32005KT 1 1/2SM BR OVC003 M01/M01 A2989 RMK AO2 T10101010
Loading
Personal Weather Stations






























Interactive Weather Map New forecast layout! Learn more

10-Day Weather Forecast

Advertisements
Track Severe Weather on mobile